This is the latest recevied weather packets stored in our database for station/object EA1CLT-10. If no packets are shown the sender has not sent any weather packets the latest 10 day(s).
| Time | Temp. | Humidity | Pressure | Rain* | Wind** | Luminosity | Snow |
|---|---|---|---|---|---|---|---|
| 1788616005 | 31.67° C | 41% | 1011.3 hPa | - | - | - | - |
| 1788614805 | 31.67° C | 43% | 1011.3 hPa | - | - | - | - |
| 1788613605 | 31.67° C | 43% | 1011.6 hPa | - | - | - | - |
| 1788612432 | 31.11° C | 44% | 1011.8 hPa | - | - | - | - |
| 1788611205 | 31.11° C | 48% | 1011.8 hPa | - | - | - | - |
| 1788610004 | 30.56° C | 48% | 1012.1 hPa | - | - | - | - |
| 1788608804 | 30° C | 47% | 1012.3 hPa | - | - | - | - |
| 1788607604 | 30° C | 47% | 1012.6 hPa | - | - | - | - |
| 1788606404 | 29.44° C | 47% | 1012.8 hPa | - | - | - | - |
| 1788605204 | 29.44° C | 48% | 1013 hPa | - | - | - | - |
| 1788604004 | 28.89° C | 48% | 1013.3 hPa | - | - | - | - |
| 1788602804 | 28.89° C | 49% | 1013.4 hPa | - | - | - | - |
| 1788601604 | 28.89° C | 50% | 1013.5 hPa | - | - | - | - |
| 1788600404 | 28.33° C | 50% | 1013.6 hPa | - | - | - | - |
| 1788599204 | 28.33° C | 48% | 1013.6 hPa | - | - | - | - |
| 1788598004 | 27.78° C | 47% | 1013.6 hPa | - | - | - | - |
| 1788596804 | 27.78° C | 47% | 1013.7 hPa | - | - | - | - |
| 1788595604 | 27.78° C | 47% | 1013.8 hPa | - | - | - | - |
| 1788594403 | 27.78° C | 47% | 1013.7 hPa | - | - | - | - |
| 1788593203 | 27.78° C | 47% | 1013.7 hPa | - | - | - | - |
| 1788592003 | 27.78° C | 47% | 1013.8 hPa | - | - | - | - |
| 1788590803 | 27.78° C | 47% | 1013.7 hPa | - | - | - | - |
| 1788589603 | 28.33° C | 47% | 1013.5 hPa | - | - | - | - |
| 1788588403 | 28.33° C | 46% | 1013.7 hPa | - | - | - | - |
| 1788587203 | 28.33° C | 46% | 1013.8 hPa | - | - | - | - |
* Rain since midnight (hover to see other rain measurements)
** Current wind speed in m/s (hover to see current wind gust speed)